sensor_id;sensor_type;location;lat;lon;timestamp;pressure;altitude;pressure_sealevel;temperature;humidity
12215;BME280;6170;42.206;24.142;2023-02-15T00:01:27;100077.78;;;4.10;66.25
12215;BME280;6170;42.206;24.142;2023-02-15T00:03:54;100067.84;;;4.02;66.41
12215;BME280;6170;42.206;24.142;2023-02-15T00:06:21;100074.88;;;4.13;65.61
12215;BME280;6170;42.206;24.142;2023-02-15T00:08:49;100076.16;;;3.97;66.44
12215;BME280;6170;42.206;24.142;2023-02-15T00:11:18;100087.88;;;4.16;65.75
12215;BME280;6170;42.206;24.142;2023-02-15T00:14:05;100067.16;;;4.10;65.92
12215;BME280;6170;42.206;24.142;2023-02-15T00:16:32;100061.28;;;4.06;65.46
12215;BME280;6170;42.206;24.142;2023-02-15T00:18:58;100069.56;;;3.92;65.78
12215;BME280;6170;42.206;24.142;2023-02-15T00:21:27;100076.38;;;4.05;65.52
12215;BME280;6170;42.206;24.142;2023-02-15T00:23:57;100039.03;;;3.77;65.72
12215;BME280;6170;42.206;24.142;2023-02-15T00:26:24;100083.28;;;4.18;65.23
12215;BME280;6170;42.206;24.142;2023-02-15T00:28:51;100080.31;;;4.11;65.85
12215;BME280;6170;42.206;24.142;2023-02-15T00:31:19;100084.31;;;4.05;65.72
12215;BME280;6170;42.206;24.142;2023-02-15T00:33:46;100088.06;;;4.03;66.01
12215;BME280;6170;42.206;24.142;2023-02-15T00:36:13;100086.16;;;3.94;65.80
12215;BME280;6170;42.206;24.142;2023-02-15T00:38:40;100082.91;;;4.01;65.53
12215;BME280;6170;42.206;24.142;2023-02-15T00:41:08;100098.53;;;4.04;65.64
12215;BME280;6170;42.206;24.142;2023-02-15T00:43:35;100129.41;;;4.26;65.32
12215;BME280;6170;42.206;24.142;2023-02-15T00:46:03;100094.75;;;3.97;65.04
12215;BME280;6170;42.206;24.142;2023-02-15T00:48:30;100071.50;;;3.90;65.07
12215;BME280;6170;42.206;24.142;2023-02-15T00:50:58;100094.66;;;3.88;65.61
12215;BME280;6170;42.206;24.142;2023-02-15T00:53:26;100101.31;;;3.82;65.47
12215;BME280;6170;42.206;24.142;2023-02-15T00:55:53;100096.50;;;3.76;65.45
12215;BME280;6170;42.206;24.142;2023-02-15T00:58:21;100092.28;;;3.85;65.39
12215;BME280;6170;42.206;24.142;2023-02-15T01:00:48;100080.63;;;3.97;64.72
12215;BME280;6170;42.206;24.142;2023-02-15T01:03:16;100092.19;;;3.96;64.81
12215;BME280;6170;42.206;24.142;2023-02-15T01:05:43;100095.25;;;3.91;65.18
12215;BME280;6170;42.206;24.142;2023-02-15T01:08:10;100112.09;;;3.90;65.70
12215;BME280;6170;42.206;24.142;2023-02-15T01:10:37;100050.00;;;3.51;65.42
12215;BME280;6170;42.206;24.142;2023-02-15T01:13:04;100075.91;;;3.80;65.57
12215;BME280;6170;42.206;24.142;2023-02-15T01:15:35;100076.56;;;3.93;65.21
12215;BME280;6170;42.206;24.142;2023-02-15T01:18:02;100068.66;;;3.82;65.58
12215;BME280;6170;42.206;24.142;2023-02-15T01:20:29;100080.81;;;3.84;65.42
12215;BME280;6170;42.206;24.142;2023-02-15T01:22:56;100068.59;;;3.93;65.24
12215;BME280;6170;42.206;24.142;2023-02-15T01:25:25;100104.22;;;4.00;65.60
12215;BME280;6170;42.206;24.142;2023-02-15T01:27:51;100065.22;;;3.91;64.90
12215;BME280;6170;42.206;24.142;2023-02-15T01:30:18;100073.81;;;4.04;64.29
12215;BME280;6170;42.206;24.142;2023-02-15T01:32:46;100078.34;;;4.13;64.15
12215;BME280;6170;42.206;24.142;2023-02-15T01:35:13;100085.09;;;3.96;64.69
12215;BME280;6170;42.206;24.142;2023-02-15T01:37:40;100066.19;;;3.90;64.67
12215;BME280;6170;42.206;24.142;2023-02-15T01:40:09;100071.09;;;3.74;65.26
12215;BME280;6170;42.206;24.142;2023-02-15T01:42:38;100057.19;;;3.60;65.40
12215;BME280;6170;42.206;24.142;2023-02-15T01:45:19;100073.63;;;3.75;64.98
12215;BME280;6170;42.206;24.142;2023-02-15T01:47:52;100081.59;;;3.75;65.54
12215;BME280;6170;42.206;24.142;2023-02-15T01:50:23;100056.59;;;3.57;65.47
12215;BME280;6170;42.206;24.142;2023-02-15T01:52:56;100081.50;;;3.66;65.27
12215;BME280;6170;42.206;24.142;2023-02-15T01:55:25;100059.91;;;3.70;65.30
12215;BME280;6170;42.206;24.142;2023-02-15T01:57:53;100057.38;;;3.37;66.07
12215;BME280;6170;42.206;24.142;2023-02-15T02:00:20;100061.03;;;3.36;65.96
12215;BME280;6170;42.206;24.142;2023-02-15T02:02:53;100059.59;;;3.32;66.25
12215;BME280;6170;42.206;24.142;2023-02-15T02:05:20;100067.75;;;3.40;66.07
12215;BME280;6170;42.206;24.142;2023-02-15T02:07:48;100067.22;;;3.46;66.51
12215;BME280;6170;42.206;24.142;2023-02-15T02:10:17;100027.81;;;3.21;66.96
12215;BME280;6170;42.206;24.142;2023-02-15T02:12:46;100076.38;;;3.53;66.66
12215;BME280;6170;42.206;24.142;2023-02-15T02:15:16;100072.50;;;3.57;66.19
12215;BME280;6170;42.206;24.142;2023-02-15T02:17:53;100077.88;;;3.67;66.24
12215;BME280;6170;42.206;24.142;2023-02-15T02:20:49;100064.25;;;3.39;66.10
12215;BME280;6170;42.206;24.142;2023-02-15T02:23:40;100085.16;;;3.53;66.28
12215;BME280;6170;42.206;24.142;2023-02-15T02:35:10;100097.84;;;3.39;66.57
12215;BME280;6170;42.206;24.142;2023-02-15T02:37:46;100092.44;;;3.40;66.85
12215;BME280;6170;42.206;24.142;2023-02-15T02:40:20;100093.50;;;3.38;66.94
12215;BME280;6170;42.206;24.142;2023-02-15T02:42:50;100096.91;;;3.40;66.61
12215;BME280;6170;42.206;24.142;2023-02-15T02:45:25;100109.41;;;3.38;67.26
12215;BME280;6170;42.206;24.142;2023-02-15T02:47:56;100097.16;;;3.26;67.19
12215;BME280;6170;42.206;24.142;2023-02-15T02:50:28;100097.97;;;3.37;67.38
12215;BME280;6170;42.206;24.142;2023-02-15T02:52:57;100105.69;;;3.29;67.86
12215;BME280;6170;42.206;24.142;2023-02-15T02:55:28;100101.59;;;3.36;67.54
12215;BME280;6170;42.206;24.142;2023-02-15T02:58:01;100085.75;;;3.03;68.40
12215;BME280;6170;42.206;24.142;2023-02-15T03:00:31;100141.09;;;3.28;69.06
12215;BME280;6170;42.206;24.142;2023-02-15T03:03:05;100088.63;;;3.22;68.68
12215;BME280;6170;42.206;24.142;2023-02-15T03:05:37;100087.03;;;3.31;68.84
12215;BME280;6170;42.206;24.142;2023-02-15T03:08:06;100096.75;;;3.41;68.10
12215;BME280;6170;42.206;24.142;2023-02-15T03:10:37;100096.44;;;3.24;68.80
12215;BME280;6170;42.206;24.142;2023-02-15T03:13:04;100090.22;;;3.02;68.96
12215;BME280;6170;42.206;24.142;2023-02-15T03:15:34;100098.84;;;3.27;68.36
12215;BME280;6170;42.206;24.142;2023-02-15T03:18:18;100099.22;;;3.22;68.64
12215;BME280;6170;42.206;24.142;2023-02-15T03:20:48;100072.41;;;3.04;68.57
12215;BME280;6170;42.206;24.142;2023-02-15T03:23:18;100111.78;;;3.41;67.76
12215;BME280;6170;42.206;24.142;2023-02-15T03:25:51;100116.13;;;3.42;68.24
12215;BME280;6170;42.206;24.142;2023-02-15T03:28:23;100118.69;;;3.43;68.02
12215;BME280;6170;42.206;24.142;2023-02-15T03:30:51;100163.38;;;3.80;67.97
12215;BME280;6170;42.206;24.142;2023-02-15T03:33:21;100109.03;;;3.53;67.49
12215;BME280;6170;42.206;24.142;2023-02-15T03:36:04;100114.44;;;3.41;67.66
12215;BME280;6170;42.206;24.142;2023-02-15T03:38:36;100114.00;;;3.36;68.05
12215;BME280;6170;42.206;24.142;2023-02-15T03:41:07;100103.84;;;3.41;68.00
12215;BME280;6170;42.206;24.142;2023-02-15T03:43:45;100121.44;;;3.53;67.25
12215;BME280;6170;42.206;24.142;2023-02-15T03:46:19;100111.91;;;3.50;67.88
12215;BME280;6170;42.206;24.142;2023-02-15T03:48:52;100115.75;;;3.57;67.06
12215;BME280;6170;42.206;24.142;2023-02-15T03:51:23;100114.22;;;3.44;67.74
12215;BME280;6170;42.206;24.142;2023-02-15T03:54:03;100131.38;;;3.60;67.32
12215;BME280;6170;42.206;24.142;2023-02-15T03:56:31;100123.34;;;3.51;67.76
12215;BME280;6170;42.206;24.142;2023-02-15T03:58:59;100124.91;;;3.53;67.73
12215;BME280;6170;42.206;24.142;2023-02-15T04:02:02;100131.28;;;3.51;67.99
12215;BME280;6170;42.206;24.142;2023-02-15T04:04:35;100129.16;;;3.45;68.17
12215;BME280;6170;42.206;24.142;2023-02-15T04:07:07;100123.38;;;3.40;68.32
12215;BME280;6170;42.206;24.142;2023-02-15T04:09:34;100121.34;;;3.32;68.63
12215;BME280;6170;42.206;24.142;2023-02-15T04:12:18;100130.50;;;3.39;68.16
12215;BME280;6170;42.206;24.142;2023-02-15T04:14:45;100115.84;;;3.13;68.55
12215;BME280;6170;42.206;24.142;2023-02-15T04:17:29;100189.06;;;3.68;68.44
12215;BME280;6170;42.206;24.142;2023-02-15T04:19:56;100121.69;;;3.39;68.35
12215;BME280;6170;42.206;24.142;2023-02-15T04:22:43;100129.75;;;3.37;68.49
12215;BME280;6170;42.206;24.142;2023-02-15T04:25:27;100132.63;;;3.45;67.88
12215;BME280;6170;42.206;24.142;2023-02-15T04:27:54;100126.50;;;3.45;68.25
12215;BME280;6170;42.206;24.142;2023-02-15T04:30:22;100121.09;;;3.35;68.44
12215;BME280;6170;42.206;24.142;2023-02-15T04:32:50;100124.69;;;3.45;68.41
12215;BME280;6170;42.206;24.142;2023-02-15T04:35:18;100133.25;;;3.49;67.95
12215;BME280;6170;42.206;24.142;2023-02-15T04:37:46;100184.56;;;3.91;68.23
12215;BME280;6170;42.206;24.142;2023-02-15T04:40:14;100127.84;;;3.39;68.39
12215;BME280;6170;42.206;24.142;2023-02-15T04:42:41;100198.44;;;3.72;69.01
12215;BME280;6170;42.206;24.142;2023-02-15T04:45:08;100129.00;;;3.46;68.41
12215;BME280;6170;42.206;24.142;2023-02-15T04:47:35;100188.91;;;3.81;68.79
12215;BME280;6170;42.206;24.142;2023-02-15T04:50:02;100125.56;;;3.35;68.54
12215;BME280;6170;42.206;24.142;2023-02-15T04:52:29;100157.47;;;3.44;68.67
12215;BME280;6170;42.206;24.142;2023-02-15T04:54:57;100147.56;;;3.46;68.74
12215;BME280;6170;42.206;24.142;2023-02-15T04:57:24;100151.03;;;3.58;68.24
12215;BME280;6170;42.206;24.142;2023-02-15T04:59:50;100174.16;;;3.56;68.54
12215;BME280;6170;42.206;24.142;2023-02-15T05:02:17;100158.16;;;3.46;68.04
12215;BME280;6170;42.206;24.142;2023-02-15T05:04:44;100172.25;;;3.47;68.36
12215;BME280;6170;42.206;24.142;2023-02-15T05:07:11;100179.72;;;3.53;68.16
12215;BME280;6170;42.206;24.142;2023-02-15T05:09:38;100181.41;;;3.43;68.32
12215;BME280;6170;42.206;24.142;2023-02-15T05:12:06;100180.34;;;3.34;68.58
12215;BME280;6170;42.206;24.142;2023-02-15T05:14:33;100177.34;;;3.39;68.30
12215;BME280;6170;42.206;24.142;2023-02-15T05:17:00;100197.75;;;3.59;68.04
12215;BME280;6170;42.206;24.142;2023-02-15T05:19:29;100161.81;;;3.12;68.67
12215;BME280;6170;42.206;24.142;2023-02-15T05:21:55;100207.06;;;3.53;68.50
12215;BME280;6170;42.206;24.142;2023-02-15T05:24:22;100252.28;;;3.95;67.76
12215;BME280;6170;42.206;24.142;2023-02-15T05:27:16;100209.84;;;3.41;68.53
12215;BME280;6170;42.206;24.142;2023-02-15T05:30:00;100206.22;;;3.53;68.27
12215;BME280;6170;42.206;24.142;2023-02-15T05:32:27;100207.44;;;3.49;68.39
12215;BME280;6170;42.206;24.142;2023-02-15T05:34:54;100197.16;;;3.55;68.25
12215;BME280;6170;42.206;24.142;2023-02-15T05:37:20;100210.16;;;3.58;68.21
12215;BME280;6170;42.206;24.142;2023-02-15T05:39:47;100208.84;;;3.75;67.64
12215;BME280;6170;42.206;24.142;2023-02-15T05:42:15;100199.19;;;3.63;67.81
12215;BME280;6170;42.206;24.142;2023-02-15T05:44:42;100206.75;;;3.79;67.47
12215;BME280;6170;42.206;24.142;2023-02-15T05:47:09;100208.16;;;3.94;67.13
12215;BME280;6170;42.206;24.142;2023-02-15T05:49:35;100197.72;;;3.81;67.35
12215;BME280;6170;42.206;24.142;2023-02-15T05:52:03;100223.94;;;3.95;67.36
12215;BME280;6170;42.206;24.142;2023-02-15T05:54:29;100228.72;;;4.13;66.71
12215;BME280;6170;42.206;24.142;2023-02-15T05:56:56;100225.47;;;4.41;66.07
12215;BME280;6170;42.206;24.142;2023-02-15T05:59:24;100230.97;;;4.70;65.01
12215;BME280;6170;42.206;24.142;2023-02-15T06:01:51;100221.34;;;5.20;63.70
12215;BME280;6170;42.206;24.142;2023-02-15T06:04:18;100227.63;;;5.59;62.55
12215;BME280;6170;42.206;24.142;2023-02-15T06:06:45;100226.09;;;5.96;61.61
12215;BME280;6170;42.206;24.142;2023-02-15T06:09:12;100233.25;;;6.24;60.69
12215;BME280;6170;42.206;24.142;2023-02-15T06:11:38;100233.63;;;6.77;59.67
12215;BME280;6170;42.206;24.142;2023-02-15T06:14:05;100228.16;;;6.89;58.36
12215;BME280;6170;42.206;24.142;2023-02-15T06:16:33;100239.28;;;7.58;56.86
12215;BME280;6170;42.206;24.142;2023-02-15T06:19:00;100224.34;;;7.92;56.60
12215;BME280;6170;42.206;24.142;2023-02-15T06:21:27;100227.34;;;8.25;55.82
12215;BME280;6170;42.206;24.142;2023-02-15T06:23:54;100250.41;;;8.79;54.32
12215;BME280;6170;42.206;24.142;2023-02-15T06:26:21;100241.81;;;8.67;54.15
12215;BME280;6170;42.206;24.142;2023-02-15T06:28:48;100243.03;;;9.24;53.35
12215;BME280;6170;42.206;24.142;2023-02-15T06:31:15;100239.69;;;9.56;52.87
12215;BME280;6170;42.206;24.142;2023-02-15T06:33:43;100241.72;;;9.28;52.57
12215;BME280;6170;42.206;24.142;2023-02-15T06:36:10;100216.41;;;9.48;53.07
12215;BME280;6170;42.206;24.142;2023-02-15T06:38:37;100232.09;;;9.43;52.72
12215;BME280;6170;42.206;24.142;2023-02-15T06:41:04;100231.03;;;9.70;52.42
12215;BME280;6170;42.206;24.142;2023-02-15T06:43:31;100241.91;;;9.35;52.57
12215;BME280;6170;42.206;24.142;2023-02-15T06:45:59;100226.25;;;10.48;50.59
12215;BME280;6170;42.206;24.142;2023-02-15T06:48:26;100241.44;;;10.31;51.14
12215;BME280;6170;42.206;24.142;2023-02-15T06:50:54;100241.78;;;10.20;51.44
12215;BME280;6170;42.206;24.142;2023-02-15T06:53:21;100226.06;;;10.82;50.78
12215;BME280;6170;42.206;24.142;2023-02-15T06:55:48;100230.09;;;10.54;50.55
12215;BME280;6170;42.206;24.142;2023-02-15T06:58:14;100230.94;;;10.38;50.68
12215;BME280;6170;42.206;24.142;2023-02-15T07:00:41;100224.47;;;9.23;52.70
12215;BME280;6170;42.206;24.142;2023-02-15T07:03:08;100229.09;;;9.13;53.21
12215;BME280;6170;42.206;24.142;2023-02-15T07:05:35;100228.63;;;9.93;52.37
12215;BME280;6170;42.206;24.142;2023-02-15T07:08:03;100236.91;;;9.74;53.17
12215;BME280;6170;42.206;24.142;2023-02-15T07:10:30;100230.31;;;9.94;53.15
12215;BME280;6170;42.206;24.142;2023-02-15T07:12:57;100234.53;;;9.29;53.63
12215;BME280;6170;42.206;24.142;2023-02-15T07:15:22;100238.25;;;9.36;53.44
12215;BME280;6170;42.206;24.142;2023-02-15T07:17:50;100238.84;;;9.98;52.15
12215;BME280;6170;42.206;24.142;2023-02-15T07:20:18;100226.75;;;10.35;51.84
12215;BME280;6170;42.206;24.142;2023-02-15T07:22:46;100224.78;;;9.96;51.90
12215;BME280;6170;42.206;24.142;2023-02-15T07:25:15;100245.84;;;10.49;51.90
12215;BME280;6170;42.206;24.142;2023-02-15T07:27:42;100231.91;;;10.21;52.15
12215;BME280;6170;42.206;24.142;2023-02-15T07:30:11;100233.59;;;10.22;52.01
12215;BME280;6170;42.206;24.142;2023-02-15T07:32:38;100229.59;;;10.42;51.73
12215;BME280;6170;42.206;24.142;2023-02-15T07:35:26;100224.56;;;10.39;51.21
12215;BME280;6170;42.206;24.142;2023-02-15T07:37:53;100230.09;;;10.54;50.97
12215;BME280;6170;42.206;24.142;2023-02-15T07:40:22;100222.19;;;10.28;52.24
12215;BME280;6170;42.206;24.142;2023-02-15T07:42:49;100220.69;;;10.25;51.90
12215;BME280;6170;42.206;24.142;2023-02-15T07:45:18;100224.66;;;10.13;51.74
12215;BME280;6170;42.206;24.142;2023-02-15T07:47:45;100215.88;;;10.69;51.73
12215;BME280;6170;42.206;24.142;2023-02-15T07:50:12;100234.09;;;10.58;51.07
12215;BME280;6170;42.206;24.142;2023-02-15T07:52:38;100230.56;;;10.17;52.22
12215;BME280;6170;42.206;24.142;2023-02-15T07:55:05;100228.25;;;9.88;52.42
12215;BME280;6170;42.206;24.142;2023-02-15T07:57:35;100237.63;;;10.42;51.52
12215;BME280;6170;42.206;24.142;2023-02-15T08:00:02;100233.63;;;10.87;50.86
12215;BME280;6170;42.206;24.142;2023-02-15T08:02:29;100261.91;;;11.21;50.50
12215;BME280;6170;42.206;24.142;2023-02-15T08:04:56;100217.59;;;11.42;49.84
12215;BME280;6170;42.206;24.142;2023-02-15T08:07:23;100233.88;;;11.32;49.87
12215;BME280;6170;42.206;24.142;2023-02-15T08:09:49;100215.84;;;11.57;49.94
12215;BME280;6170;42.206;24.142;2023-02-15T08:12:16;100213.94;;;12.12;48.34
12215;BME280;6170;42.206;24.142;2023-02-15T08:14:44;100224.94;;;11.48;49.41
12215;BME280;6170;42.206;24.142;2023-02-15T08:17:11;100222.97;;;11.42;48.99
12215;BME280;6170;42.206;24.142;2023-02-15T08:19:38;100216.00;;;11.55;49.67
12215;BME280;6170;42.206;24.142;2023-02-15T08:22:06;100220.03;;;11.04;50.42
12215;BME280;6170;42.206;24.142;2023-02-15T08:24:36;100195.03;;;11.51;49.17
12215;BME280;6170;42.206;24.142;2023-02-15T08:27:03;100229.22;;;11.65;50.76
12215;BME280;6170;42.206;24.142;2023-02-15T08:29:31;100214.97;;;11.64;49.91
12215;BME280;6170;42.206;24.142;2023-02-15T08:32:01;100219.91;;;11.92;48.91
12215;BME280;6170;42.206;24.142;2023-02-15T08:34:29;100250.28;;;12.23;49.71
12215;BME280;6170;42.206;24.142;2023-02-15T08:36:57;100218.41;;;11.89;49.92
12215;BME280;6170;42.206;24.142;2023-02-15T08:39:23;100217.63;;;11.25;51.27
12215;BME280;6170;42.206;24.142;2023-02-15T08:41:50;100209.91;;;11.78;51.91
12215;BME280;6170;42.206;24.142;2023-02-15T08:44:18;100223.78;;;11.89;49.41
12215;BME280;6170;42.206;24.142;2023-02-15T08:46:47;100214.81;;;12.28;48.85
12215;BME280;6170;42.206;24.142;2023-02-15T08:49:17;100194.28;;;12.12;48.06
12215;BME280;6170;42.206;24.142;2023-02-15T08:51:45;100190.94;;;12.33;49.27
12215;BME280;6170;42.206;24.142;2023-02-15T08:54:14;100203.97;;;12.21;48.90
12215;BME280;6170;42.206;24.142;2023-02-15T08:56:42;100197.16;;;12.71;48.64
12215;BME280;6170;42.206;24.142;2023-02-15T08:59:13;100194.22;;;12.43;48.87
12215;BME280;6170;42.206;24.142;2023-02-15T09:01:40;100193.44;;;12.11;49.41
12215;BME280;6170;42.206;24.142;2023-02-15T09:04:08;100196.53;;;12.69;49.08
12215;BME280;6170;42.206;24.142;2023-02-15T09:06:37;100213.06;;;13.18;47.70
12215;BME280;6170;42.206;24.142;2023-02-15T09:09:05;100179.81;;;13.55;46.36
12215;BME280;6170;42.206;24.142;2023-02-15T09:11:34;100204.69;;;12.75;49.00
12215;BME280;6170;42.206;24.142;2023-02-15T09:14:03;100185.38;;;13.09;46.65
12215;BME280;6170;42.206;24.142;2023-02-15T09:16:32;100189.94;;;13.09;47.27
12215;BME280;6170;42.206;24.142;2023-02-15T09:19:00;100192.56;;;13.46;45.88
12215;BME280;6170;42.206;24.142;2023-02-15T09:21:28;100183.94;;;13.36;47.09
12215;BME280;6170;42.206;24.142;2023-02-15T09:23:58;100193.25;;;13.84;44.16
12215;BME280;6170;42.206;24.142;2023-02-15T09:26:26;100171.88;;;13.82;44.93
12215;BME280;6170;42.206;24.142;2023-02-15T09:28:55;100182.56;;;13.40;46.22
12215;BME280;6170;42.206;24.142;2023-02-15T09:31:24;100195.13;;;13.83;46.09
12215;BME280;6170;42.206;24.142;2023-02-15T09:33:52;100192.28;;;13.41;45.81
12215;BME280;6170;42.206;24.142;2023-02-15T09:36:20;100193.69;;;14.02;45.25
12215;BME280;6170;42.206;24.142;2023-02-15T09:38:54;100184.50;;;14.18;44.86
12215;BME280;6170;42.206;24.142;2023-02-15T09:41:40;100191.19;;;14.36;44.37
12215;BME280;6170;42.206;24.142;2023-02-15T09:44:17;100177.66;;;14.15;43.63
12215;BME280;6170;42.206;24.142;2023-02-15T09:47:10;100178.22;;;13.75;43.91
12215;BME280;6170;42.206;24.142;2023-02-15T09:49:48;100178.34;;;13.67;46.07
12215;BME280;6170;42.206;24.142;2023-02-15T09:52:36;100188.22;;;14.17;45.36
12215;BME280;6170;42.206;24.142;2023-02-15T09:55:20;100169.28;;;14.74;44.00
12215;BME280;6170;42.206;24.142;2023-02-15T09:58:00;100150.03;;;13.92;43.62
12215;BME280;6170;42.206;24.142;2023-02-15T10:00:37;100163.53;;;13.77;43.39
12215;BME280;6170;42.206;24.142;2023-02-15T10:03:16;100164.44;;;13.48;44.39
12215;BME280;6170;42.206;24.142;2023-02-15T10:05:57;100145.09;;;13.60;44.63
12215;BME280;6170;42.206;24.142;2023-02-15T10:08:44;100163.56;;;14.56;44.57
12215;BME280;6170;42.206;24.142;2023-02-15T10:11:16;100166.91;;;14.36;43.82
12215;BME280;6170;42.206;24.142;2023-02-15T10:14:31;100151.03;;;14.48;44.10
12215;BME280;6170;42.206;24.142;2023-02-15T10:17:11;100154.69;;;14.19;44.18
12215;BME280;6170;42.206;24.142;2023-02-15T10:19:45;100144.22;;;13.74;44.77
12215;BME280;6170;42.206;24.142;2023-02-15T10:22:25;100145.50;;;13.78;45.31
12215;BME280;6170;42.206;24.142;2023-02-15T10:25:07;100135.59;;;14.00;44.15
12215;BME280;6170;42.206;24.142;2023-02-15T10:27:45;100127.47;;;14.35;43.98
12215;BME280;6170;42.206;24.142;2023-02-15T10:30:16;100127.28;;;14.37;44.36
12215;BME280;6170;42.206;24.142;2023-02-15T10:32:53;100124.81;;;14.21;44.15
12215;BME280;6170;42.206;24.142;2023-02-15T10:35:33;100167.84;;;14.71;43.17
12215;BME280;6170;42.206;24.142;2023-02-15T10:38:10;100124.06;;;13.84;44.41
12215;BME280;6170;42.206;24.142;2023-02-15T10:40:51;100116.09;;;14.19;44.37
12215;BME280;6170;42.206;24.142;2023-02-15T10:43:32;100118.25;;;14.72;43.81
12215;BME280;6170;42.206;24.142;2023-02-15T10:46:08;100117.50;;;14.57;43.56
12215;BME280;6170;42.206;24.142;2023-02-15T10:48:52;100100.31;;;14.16;44.28
12215;BME280;6170;42.206;24.142;2023-02-15T10:51:31;100113.50;;;14.47;44.11
12215;BME280;6170;42.206;24.142;2023-02-15T10:54:08;100100.44;;;14.50;43.45
12215;BME280;6170;42.206;24.142;2023-02-15T10:56:38;100101.66;;;14.26;44.49
12215;BME280;6170;42.206;24.142;2023-02-15T10:59:21;100100.47;;;14.57;44.56
12215;BME280;6170;42.206;24.142;2023-02-15T11:01:54;100097.81;;;14.14;44.40
12215;BME280;6170;42.206;24.142;2023-02-15T11:04:48;100092.88;;;14.39;43.26
12215;BME280;6170;42.206;24.142;2023-02-15T11:07:21;100096.00;;;13.79;44.24
12215;BME280;6170;42.206;24.142;2023-02-15T11:09:52;100093.63;;;14.12;43.67
12215;BME280;6170;42.206;24.142;2023-02-15T11:12:23;100065.41;;;13.86;43.66
12215;BME280;6170;42.206;24.142;2023-02-15T11:14:54;100091.22;;;14.66;44.09
12215;BME280;6170;42.206;24.142;2023-02-15T11:17:27;100086.69;;;13.81;44.25
12215;BME280;6170;42.206;24.142;2023-02-15T11:20:04;100079.44;;;14.03;44.28
12215;BME280;6170;42.206;24.142;2023-02-15T11:22:34;100074.38;;;14.36;43.38
12215;BME280;6170;42.206;24.142;2023-02-15T11:25:14;100090.16;;;14.60;42.18
12215;BME280;6170;42.206;24.142;2023-02-15T11:27:43;100072.06;;;14.12;43.40
12215;BME280;6170;42.206;24.142;2023-02-15T11:30:14;100064.59;;;14.07;43.41
12215;BME280;6170;42.206;24.142;2023-02-15T11:32:44;100058.50;;;14.26;43.04
12215;BME280;6170;42.206;24.142;2023-02-15T11:35:20;100059.19;;;14.35;43.09
12215;BME280;6170;42.206;24.142;2023-02-15T11:37:53;100052.25;;;14.47;42.67
12215;BME280;6170;42.206;24.142;2023-02-15T11:40:24;100051.31;;;14.55;42.04
12215;BME280;6170;42.206;24.142;2023-02-15T11:42:55;100035.13;;;14.89;40.93
12215;BME280;6170;42.206;24.142;2023-02-15T11:45:26;100037.16;;;14.25;43.65
12215;BME280;6170;42.206;24.142;2023-02-15T11:47:56;100032.53;;;14.19;43.51
12215;BME280;6170;42.206;24.142;2023-02-15T11:50:25;100028.63;;;14.43;43.75
12215;BME280;6170;42.206;24.142;2023-02-15T11:52:56;100038.75;;;14.75;43.05
12215;BME280;6170;42.206;24.142;2023-02-15T11:55:24;100021.72;;;14.40;43.53
12215;BME280;6170;42.206;24.142;2023-02-15T11:57:53;100024.38;;;14.12;43.68
12215;BME280;6170;42.206;24.142;2023-02-15T12:00:31;100010.31;;;13.89;42.43
12215;BME280;6170;42.206;24.142;2023-02-15T12:03:08;100008.69;;;14.44;43.87
12215;BME280;6170;42.206;24.142;2023-02-15T12:05:40;100019.41;;;13.88;43.00
12215;BME280;6170;42.206;24.142;2023-02-15T12:08:15;100003.97;;;14.03;44.04
12215;BME280;6170;42.206;24.142;2023-02-15T12:10:51;100010.31;;;14.38;43.56
12215;BME280;6170;42.206;24.142;2023-02-15T12:13:20;100013.47;;;14.82;41.98
12215;BME280;6170;42.206;24.142;2023-02-15T12:15:48;100017.19;;;14.47;41.97
12215;BME280;6170;42.206;24.142;2023-02-15T12:18:32;100040.69;;;14.53;42.74
12215;BME280;6170;42.206;24.142;2023-02-15T12:21:02;100002.53;;;14.28;41.75
12215;BME280;6170;42.206;24.142;2023-02-15T12:23:32;100014.28;;;14.21;41.67
12215;BME280;6170;42.206;24.142;2023-02-15T12:25:59;100052.47;;;14.46;41.68
12215;BME280;6170;42.206;24.142;2023-02-15T12:28:31;100022.38;;;13.72;42.21
12215;BME280;6170;42.206;24.142;2023-02-15T12:31:00;100013.69;;;13.98;43.08
12215;BME280;6170;42.206;24.142;2023-02-15T12:33:34;100012.63;;;13.92;42.64
12215;BME280;6170;42.206;24.142;2023-02-15T12:36:08;100008.31;;;13.98;42.23
12215;BME280;6170;42.206;24.142;2023-02-15T12:38:36;100012.16;;;13.46;42.04
12215;BME280;6170;42.206;24.142;2023-02-15T12:41:05;100003.75;;;13.77;42.39
12215;BME280;6170;42.206;24.142;2023-02-15T12:44:03;99996.31;;;13.79;42.42
12215;BME280;6170;42.206;24.142;2023-02-15T12:46:31;99984.06;;;13.76;43.08
12215;BME280;6170;42.206;24.142;2023-02-15T12:49:10;99994.13;;;13.68;41.95
12215;BME280;6170;42.206;24.142;2023-02-15T12:51:49;99996.81;;;13.46;42.01
12215;BME280;6170;42.206;24.142;2023-02-15T12:54:32;99991.44;;;13.25;42.31
12215;BME280;6170;42.206;24.142;2023-02-15T12:57:13;99990.47;;;13.33;42.01
12215;BME280;6170;42.206;24.142;2023-02-15T12:59:48;99993.81;;;13.35;41.47
12215;BME280;6170;42.206;24.142;2023-02-15T13:02:21;99978.78;;;12.75;42.31
12215;BME280;6170;42.206;24.142;2023-02-15T13:04:50;99981.81;;;13.37;42.56
12215;BME280;6170;42.206;24.142;2023-02-15T13:07:18;99983.97;;;12.91;42.44
12215;BME280;6170;42.206;24.142;2023-02-15T13:09:46;99989.25;;;12.85;42.90
12215;BME280;6170;42.206;24.142;2023-02-15T13:12:18;99983.13;;;12.61;42.16
12215;BME280;6170;42.206;24.142;2023-02-15T13:14:46;100020.66;;;13.28;42.20
12215;BME280;6170;42.206;24.142;2023-02-15T13:17:18;99981.63;;;12.88;42.28
12215;BME280;6170;42.206;24.142;2023-02-15T13:19:50;99976.19;;;12.67;43.30
12215;BME280;6170;42.206;24.142;2023-02-15T13:22:20;100011.66;;;13.06;42.36
12215;BME280;6170;42.206;24.142;2023-02-15T13:24:50;99972.09;;;12.71;42.07